Buxtehude — V2BY8 — position and weather

sailwx.info

Track history (hours):
 
Tides and Currents Weather Stations Pressure Air Temp Water Temp Dewpoint Dewpoint Depression Visibility Wind Speed Wind Dir Waves Ship Positions

Buxtehude

Last reported at 2017-Dec-11 15:01 UTC. Time now 2017-Dec-14 17:19 UTC.
Position N 37°18' E 015°42'.

Length 134 m; draft 7.8 m.

Type: Ship (hazmat cat A). MMSI: 304962000.

Date/timePositionNaut miles runAvg speedWind from/ knotsBaromVisibWave heightAir tempDewpointWater temp
2017-Dec-11 15:01N 37°18' E 015°42'015.8
2017-Dec-11 15:00N 37°19' E 015°42'915.7
2017-Dec-11 14:24N 37°27' E 015°48'715.7
2017-Dec-11 13:57N 37°33' E 015°53'815.6
2017-Dec-11 13:28N 37°40' E 015°57'815.8
2017-Dec-11 12:58N 37°46' E 016°01'  
2017-Dec-07 17:05N 37°40' E 015°58'114 6.0
2017-Dec-06 22:11N 36°02' E 014°46'314.7
2017-Dec-06 22:00N 36°00' E 014°44'814.9
2017-Dec-06 21:30N 35°54' E 014°38'712.3
2017-Dec-06 20:57N 35°48' E 014°35'  
Track history (hours):
 
Tides and Currents Weather Stations Pressure Air Temp Water Temp Dewpoint Dewpoint Depression Visibility Wind Speed Wind Dir Waves Ship Positions

Buxtehude

Last reported at 2017-Dec-11 15:01 UTC. Time now 2017-Dec-14 17:19 UTC.
Position N 37°18' E 015°42'.

Length 134 m; draft 7.8 m.

Type: Ship (hazmat cat A). MMSI: 304962000.

Date/timePositionNaut miles runAvg speedWind from/ knotsBaromVisibWave heightAir tempDewpointWater temp
2017-Dec-11 15:01N 37°18' E 015°42'015.8
2017-Dec-11 15:00N 37°19' E 015°42'915.7
2017-Dec-11 14:24N 37°27' E 015°48'715.7
2017-Dec-11 13:57N 37°33' E 015°53'815.6
2017-Dec-11 13:28N 37°40' E 015°57'815.8
2017-Dec-11 12:58N 37°46' E 016°01'  
2017-Dec-07 17:05N 37°40' E 015°58'114 6.0
2017-Dec-06 22:11N 36°02' E 014°46'314.7
2017-Dec-06 22:00N 36°00' E 014°44'814.9
2017-Dec-06 21:30N 35°54' E 014°38'712.3
2017-Dec-06 20:57N 35°48' E 014°35'  

Dump ship's entire track history